Renova, Mississippi
Current Conditions -  °F | °C
As of 7:15 PM on Tuesday 27 Jan 2015 (Local Time) from KRNV Reporting Station
Clear Clear  
Wind Chill: 45°   Ceiling: Unl
Heat Index: 48°   Visibility: 10mi
Dew Point: 43°   Wind: 6mph
Humidity: 82%   Direction: 350°N
Pressure: 30.18"   Gusts: NA
Location:  33.7903°N, 90.8559°W
Report Text: KRNV 280115Z AUTO 35005KT 10SM CLR 09/06 A3018 RMK AO2 T00890059
Loading
Personal Weather Stations






























Interactive Weather Map New forecast layout! Learn more

10-Day Weather Forecast

Advertisements
Track Severe Weather on mobile